createdAt,value
2019-01-14T00:02:18.649Z,7.63
2019-01-14T00:04:46.997Z,7.70
2019-01-14T00:07:15.401Z,7.73
2019-01-14T00:09:43.860Z,7.72
2019-01-14T00:12:12.606Z,7.73
2019-01-14T00:14:41.017Z,7.71
2019-01-14T00:17:09.570Z,7.82
2019-01-14T00:19:37.916Z,7.78
2019-01-14T00:22:06.947Z,7.75
2019-01-14T00:24:35.372Z,7.73
2019-01-14T00:27:03.829Z,7.75
2019-01-14T00:29:32.159Z,7.77
2019-01-14T00:32:00.494Z,7.83
2019-01-14T00:34:29.205Z,7.75
2019-01-14T00:36:57.509Z,7.87
2019-01-14T00:39:25.847Z,7.79
2019-01-14T00:41:54.192Z,8.06
2019-01-14T00:44:22.534Z,7.99
2019-01-14T00:46:50.828Z,7.85
2019-01-14T00:49:19.161Z,7.90
2019-01-14T00:51:47.483Z,7.86
2019-01-14T00:54:15.822Z,7.94
2019-01-14T00:56:44.138Z,7.93
2019-01-14T00:59:12.544Z,7.97
2019-01-14T01:01:40.961Z,7.92
2019-01-14T01:04:09.598Z,7.87
2019-01-14T01:06:38.019Z,7.76
2019-01-14T01:09:07.040Z,7.71
2019-01-14T01:11:35.453Z,7.66
2019-01-14T01:14:03.921Z,7.70
2019-01-14T01:16:32.277Z,7.69
2019-01-14T01:19:00.605Z,7.64
2019-01-14T01:21:29.006Z,7.52
2019-01-14T01:23:57.312Z,7.51
2019-01-14T01:26:25.657Z,7.66
2019-01-14T01:28:54.005Z,7.70
2019-01-14T01:31:22.342Z,7.73
2019-01-14T01:33:50.673Z,7.79
2019-01-14T01:36:19.072Z,7.78
2019-01-14T01:38:47.373Z,7.77
2019-01-14T01:41:15.722Z,7.64
2019-01-14T01:43:44.032Z,7.71
2019-01-14T01:46:12.989Z,7.69
2019-01-14T01:48:41.297Z,7.69
2019-01-14T01:51:10.154Z,7.77
2019-01-14T01:53:38.461Z,7.71
2019-01-14T01:56:06.820Z,7.63
2019-01-14T01:58:35.160Z,7.60
2019-01-14T02:01:03.827Z,7.58
2019-01-14T02:03:32.172Z,7.64
2019-01-14T02:06:00.509Z,7.62
2019-01-14T02:08:28.845Z,7.59
2019-01-14T02:10:57.174Z,7.57
2019-01-14T02:13:25.533Z,7.52
2019-01-14T02:15:53.866Z,7.44
2019-01-14T02:18:22.170Z,7.57
2019-01-14T02:20:50.513Z,7.48
2019-01-14T02:23:18.865Z,7.54
2019-01-14T02:25:47.148Z,7.56
2019-01-14T02:28:15.510Z,7.40
2019-01-14T02:30:43.835Z,7.40
2019-01-14T02:33:12.614Z,7.53
2019-01-14T02:35:41.195Z,7.48
2019-01-14T02:38:09.590Z,7.29
2019-01-14T02:40:38.017Z,7.24
2019-01-14T02:43:06.315Z,7.29
2019-01-14T02:45:34.679Z,7.18
2019-01-14T02:48:03.261Z,7.22
2019-01-14T02:50:31.566Z,7.12
2019-01-14T02:52:59.896Z,7.13
2019-01-14T02:55:28.218Z,7.10
2019-01-14T02:57:56.533Z,7.08
2019-01-14T03:00:25.689Z,7.02
2019-01-14T03:02:54.078Z,6.93
2019-01-14T03:05:23.145Z,6.88
2019-01-14T03:07:51.552Z,6.85
2019-01-14T03:10:19.953Z,6.84
2019-01-14T03:12:48.337Z,6.85
2019-01-14T03:15:18.285Z,6.79
2019-01-14T03:17:48.203Z,6.81
2019-01-14T03:20:17.688Z,6.78
2019-01-14T03:22:46.026Z,6.81
2019-01-14T03:25:15.518Z,6.80
2019-01-14T03:27:43.884Z,6.85
2019-01-14T03:30:15.328Z,6.83
2019-01-14T03:32:43.678Z,6.74
2019-01-14T03:35:13.001Z,6.71
2019-01-14T03:37:41.456Z,6.77
2019-01-14T03:40:11.538Z,6.74
2019-01-14T03:42:40.607Z,6.72
2019-01-14T03:45:11.351Z,6.77
2019-01-14T03:47:39.683Z,6.71
2019-01-14T03:50:11.215Z,6.67
2019-01-14T03:52:39.534Z,6.66
2019-01-14T03:55:08.150Z,6.62
2019-01-14T03:57:36.516Z,6.60
2019-01-14T04:00:08.172Z,6.56
2019-01-14T04:02:36.588Z,6.55
2019-01-14T04:05:06.986Z,6.53
2019-01-14T04:07:35.363Z,6.44
2019-01-14T04:10:07.021Z,6.42
2019-01-14T04:12:35.363Z,6.49
2019-01-14T04:15:05.306Z,6.52
2019-01-14T04:17:33.654Z,6.48
2019-01-14T04:20:02.482Z,6.44
2019-01-14T04:22:30.815Z,6.50
2019-01-14T04:24:59.132Z,6.38
2019-01-14T04:27:27.433Z,6.42
2019-01-14T04:29:55.777Z,6.40
2019-01-14T04:32:24.100Z,6.37
2019-01-14T04:34:52.437Z,6.35
2019-01-14T04:37:21.874Z,6.29
2019-01-14T04:39:50.286Z,6.40
2019-01-14T04:42:18.629Z,6.36
2019-01-14T04:44:46.969Z,6.41
2019-01-14T04:47:15.284Z,6.32
2019-01-14T04:49:43.628Z,6.32
2019-01-14T04:52:12.213Z,6.23
2019-01-14T04:54:40.558Z,6.30
2019-01-14T04:57:08.904Z,6.31
2019-01-14T04:59:37.265Z,6.34
2019-01-14T05:02:05.749Z,6.37
2019-01-14T05:04:34.156Z,6.41
2019-01-14T05:07:02.555Z,6.46
2019-01-14T05:09:30.920Z,6.53
2019-01-14T05:11:59.263Z,6.50
2019-01-14T05:14:27.591Z,6.57
2019-01-14T05:16:56.028Z,6.53
2019-01-14T05:19:24.909Z,6.53
2019-01-14T05:21:53.330Z,6.60
2019-01-14T05:24:21.658Z,6.69
2019-01-14T05:26:49.998Z,6.68
2019-01-14T05:29:18.398Z,6.66
2019-01-14T05:31:46.763Z,6.66
2019-01-14T05:34:15.149Z,6.67
2019-01-14T05:36:43.497Z,6.76
2019-01-14T05:39:11.877Z,6.79
2019-01-14T05:41:40.216Z,6.88
2019-01-14T05:44:08.773Z,6.87
2019-01-14T05:46:37.108Z,6.92
2019-01-14T05:49:05.433Z,6.87
2019-01-14T05:51:33.804Z,6.83
2019-01-14T05:54:02.285Z,6.89
2019-01-14T05:56:30.627Z,6.76
2019-01-14T05:58:58.970Z,6.84
2019-01-14T06:01:27.797Z,6.78
2019-01-14T06:03:56.130Z,6.70
2019-01-14T06:06:24.575Z,6.58
2019-01-14T06:08:52.886Z,6.58
2019-01-14T06:11:21.222Z,6.64
2019-01-14T06:13:49.564Z,6.57
2019-01-14T06:16:18.488Z,6.57
2019-01-14T06:18:46.971Z,6.55
2019-01-14T06:21:15.298Z,6.48
2019-01-14T06:23:43.620Z,6.58
2019-01-14T06:26:12.239Z,6.58
2019-01-14T06:28:40.576Z,6.59
2019-01-14T06:31:08.886Z,6.55
2019-01-14T06:33:37.225Z,6.60
2019-01-14T06:36:05.633Z,6.55
2019-01-14T06:38:34.087Z,6.57
2019-01-14T06:41:02.486Z,6.64
2019-01-14T06:43:30.813Z,6.52
2019-01-14T06:45:59.158Z,6.45
2019-01-14T06:48:27.594Z,6.55
2019-01-14T06:50:56.218Z,6.61
2019-01-14T06:53:24.517Z,6.56
2019-01-14T06:55:52.830Z,6.52
2019-01-14T06:58:21.202Z,6.53
2019-01-14T07:00:50.364Z,6.63
2019-01-14T07:03:18.720Z,6.52
2019-01-14T07:05:48.126Z,6.53
2019-01-14T07:08:16.886Z,6.54
2019-01-14T07:10:46.091Z,6.62
2019-01-14T07:13:17.187Z,6.55
2019-01-14T07:15:45.941Z,6.46
2019-01-14T07:18:15.009Z,6.46
2019-01-14T07:20:45.305Z,6.43
2019-01-14T07:23:14.442Z,6.53
2019-01-14T07:25:44.262Z,6.76
2019-01-14T07:28:12.914Z,6.83
2019-01-14T07:30:42.462Z,6.78
2019-01-14T07:33:10.913Z,6.64
2019-01-14T07:35:39.328Z,6.66
2019-01-14T07:38:08.107Z,6.58
2019-01-14T07:40:36.457Z,6.49
2019-01-14T07:43:04.828Z,6.55
2019-01-14T07:45:33.533Z,6.59
2019-01-14T07:48:01.916Z,6.55
2019-01-14T07:50:30.309Z,6.45
2019-01-14T07:52:58.734Z,6.42
2019-01-14T07:55:27.143Z,6.49
2019-01-14T07:57:55.469Z,6.44
2019-01-14T08:00:24.498Z,6.54
2019-01-14T08:02:52.858Z,6.57
2019-01-14T10:58:24.545Z,7.05
2019-01-14T11:00:53.345Z,7.17
2019-01-14T11:03:22.723Z,7.25
2019-01-14T11:05:51.930Z,7.38
2019-01-14T11:08:20.955Z,7.28
2019-01-14T11:10:50.033Z,7.31
2019-01-14T11:13:18.884Z,7.36
2019-01-14T11:15:47.914Z,7.57
2019-01-14T11:18:16.985Z,7.63
2019-01-14T11:20:46.118Z,7.79
2019-01-14T11:23:14.408Z,7.94
2019-01-14T11:25:42.812Z,8.19
2019-01-14T11:28:11.242Z,8.27
2019-01-14T11:30:39.571Z,8.25
2019-01-14T11:33:08.185Z,7.98
2019-01-14T11:35:38.304Z,7.84
2019-01-14T11:38:08.710Z,7.49
2019-01-14T11:40:37.168Z,7.47
2019-01-14T11:43:05.526Z,7.27
2019-01-14T11:45:33.931Z,7.31
2019-01-14T11:48:02.381Z,7.21
2019-01-14T11:50:30.740Z,7.35
2019-01-14T11:52:59.146Z,7.38
2019-01-14T11:55:27.566Z,7.50
2019-01-14T11:57:55.859Z,7.45
2019-01-14T12:00:25.816Z,7.41
2019-01-14T12:02:54.309Z,7.29
2019-01-14T12:05:22.778Z,7.07
2019-01-14T12:07:51.144Z,7.18
2019-01-14T12:10:19.595Z,7.07
2019-01-14T12:12:48.063Z,7.03
2019-01-14T12:15:17.726Z,7.02
2019-01-14T12:17:46.121Z,7.08
2019-01-14T12:20:15.509Z,7.08
2019-01-14T12:22:43.933Z,7.14
2019-01-14T12:25:13.881Z,7.16
2019-01-14T12:27:42.252Z,7.17
2019-01-14T12:30:17.019Z,7.04
2019-01-14T12:32:45.322Z,6.95
2019-01-14T12:35:14.427Z,6.78
2019-01-14T12:37:42.905Z,6.67
2019-01-14T12:40:12.477Z,6.58
2019-01-14T12:42:40.858Z,6.63
2019-01-14T12:45:13.902Z,6.66
2019-01-14T12:47:42.222Z,6.55
2019-01-14T12:50:13.764Z,6.68
2019-01-14T12:52:42.084Z,6.54
2019-01-14T12:55:12.882Z,6.52
2019-01-14T12:57:41.359Z,6.49
2019-01-14T13:00:14.692Z,6.38
2019-01-14T13:02:43.046Z,6.37
2019-01-14T13:05:13.245Z,6.49
2019-01-14T13:07:41.640Z,6.49
2019-01-14T13:10:12.005Z,6.58
2019-01-14T13:12:40.533Z,6.82
2019-01-14T13:15:12.802Z,6.79
2019-01-14T13:17:41.155Z,6.65
2019-01-14T13:20:13.048Z,6.65
2019-01-14T13:22:41.361Z,6.74
2019-01-14T13:25:10.343Z,6.83
2019-01-14T13:27:38.803Z,6.90
2019-01-14T13:30:09.804Z,6.87
2019-01-14T13:32:38.187Z,6.81
2019-01-14T13:35:07.241Z,6.73
2019-01-14T13:37:35.631Z,6.75
2019-01-14T13:40:06.055Z,6.62
2019-01-14T13:42:34.395Z,6.70
2019-01-14T13:45:03.100Z,6.70
2019-01-14T13:47:31.437Z,6.57
2019-01-14T13:49:59.766Z,6.57
2019-01-14T13:52:28.424Z,6.45
2019-01-14T13:54:56.733Z,6.43
2019-01-14T13:57:25.130Z,6.43
2019-01-14T13:59:53.454Z,6.32
2019-01-14T14:02:21.802Z,6.26
2019-01-14T14:04:50.106Z,6.19
2019-01-14T14:07:18.525Z,6.13
2019-01-14T14:09:46.939Z,6.14
2019-01-14T14:12:15.241Z,6.16
2019-01-14T14:14:43.711Z,6.27
2019-01-14T14:17:12.731Z,6.29
2019-01-14T14:19:41.229Z,6.37
2019-01-14T14:22:11.808Z,6.45
2019-01-14T14:24:39.852Z,6.38
2019-01-14T14:27:08.496Z,6.42
2019-01-14T14:29:36.816Z,6.41
2019-01-14T14:32:05.209Z,6.42
2019-01-14T14:34:33.605Z,6.48
2019-01-14T14:37:01.957Z,6.48
2019-01-14T14:39:30.284Z,6.43
2019-01-14T14:41:58.580Z,6.42
2019-01-14T14:44:26.930Z,6.37
2019-01-14T14:46:55.428Z,6.29
2019-01-14T14:49:23.783Z,6.28
2019-01-14T14:51:52.505Z,6.29
2019-01-14T14:54:20.852Z,6.26
2019-01-14T14:56:49.128Z,6.13
2019-01-14T14:59:17.564Z,5.96
2019-01-14T15:01:45.965Z,5.90
2019-01-14T15:04:14.286Z,5.88
2019-01-14T15:06:42.638Z,5.80
2019-01-14T15:09:12.012Z,5.78
2019-01-14T15:11:40.302Z,5.70
2019-01-14T15:14:08.765Z,5.76
2019-01-14T15:16:37.089Z,5.82
2019-01-14T15:19:05.549Z,5.78
2019-01-14T15:21:33.883Z,5.80
2019-01-14T15:24:02.819Z,5.80
2019-01-14T15:26:31.287Z,5.75
2019-01-14T15:28:59.661Z,5.71
2019-01-14T15:31:28.002Z,5.62
2019-01-14T15:33:56.313Z,5.63
2019-01-14T15:36:24.661Z,5.62
2019-01-14T15:38:52.977Z,5.54
2019-01-14T15:41:21.330Z,5.44
2019-01-14T15:43:49.686Z,5.46
2019-01-14T15:46:18.080Z,5.39
2019-01-14T15:48:46.413Z,5.37
2019-01-14T15:51:14.801Z,5.31
2019-01-14T15:53:43.117Z,5.21
2019-01-14T15:56:11.475Z,5.19
2019-01-14T15:58:39.773Z,5.08
2019-01-14T16:01:08.118Z,5.08
2019-01-14T16:03:36.503Z,5.08
2019-01-14T16:06:04.894Z,5.14
2019-01-14T16:08:33.209Z,5.04
2019-01-14T16:11:01.562Z,5.04
2019-01-14T16:13:29.932Z,4.90
2019-01-14T16:15:58.246Z,4.82
2019-01-14T16:18:26.626Z,4.79
2019-01-14T16:20:55.017Z,4.75
2019-01-14T16:23:23.373Z,4.76
2019-01-14T16:25:51.714Z,4.71
2019-01-14T16:28:20.037Z,4.71
2019-01-14T16:30:48.449Z,4.61
2019-01-14T16:33:16.821Z,4.65
2019-01-14T16:35:45.167Z,4.63
2019-01-14T16:38:13.637Z,4.57
2019-01-14T16:40:41.988Z,4.57
2019-01-14T16:43:10.427Z,4.55
2019-01-14T16:45:38.790Z,4.54
2019-01-14T16:48:07.197Z,4.45
2019-01-14T16:50:35.632Z,4.40
2019-01-14T16:53:04.093Z,4.42
2019-01-14T16:55:35.262Z,4.35
2019-01-14T16:58:03.630Z,4.35
2019-01-14T17:00:32.133Z,4.32
2019-01-14T17:03:00.472Z,4.32
2019-01-14T17:05:28.772Z,4.28
2019-01-14T17:07:57.127Z,4.21
2019-01-14T17:10:25.517Z,4.17
2019-01-14T17:12:53.918Z,4.10
2019-01-14T17:15:22.230Z,4.08
2019-01-14T17:17:50.549Z,4.03
2019-01-14T17:20:19.249Z,3.98
2019-01-14T17:22:47.927Z,3.88
2019-01-14T17:25:16.355Z,3.91
2019-01-14T17:27:45.285Z,3.90
2019-01-14T17:30:15.565Z,3.87
2019-01-14T17:32:44.179Z,3.88
2019-01-14T17:35:13.153Z,3.78
2019-01-14T17:37:41.484Z,3.79
2019-01-14T17:40:13.685Z,3.77
2019-01-14T17:42:42.132Z,3.75
2019-01-14T17:45:11.708Z,3.76
2019-01-14T17:47:40.015Z,3.72
2019-01-14T17:50:11.051Z,3.67
2019-01-14T17:52:40.389Z,3.70
2019-01-14T17:55:09.425Z,3.70
2019-01-14T17:57:37.801Z,3.77
2019-01-14T18:00:11.767Z,3.86
2019-01-14T18:02:40.080Z,3.96
2019-01-14T18:05:08.668Z,3.95
2019-01-14T18:07:37.034Z,4.00
2019-01-14T18:10:09.992Z,4.03
2019-01-14T18:12:38.435Z,4.05
2019-01-14T18:15:07.614Z,4.20
2019-01-14T18:17:36.015Z,4.27
2019-01-14T18:20:06.258Z,4.24
2019-01-14T18:22:34.596Z,4.21
2019-01-14T18:25:03.070Z,4.26
2019-01-14T18:27:31.836Z,4.40
2019-01-14T18:30:00.298Z,4.34
2019-01-14T18:32:28.613Z,4.47
2019-01-14T18:34:56.983Z,4.44
2019-01-14T18:37:25.394Z,4.44
2019-01-14T18:39:53.821Z,4.21
2019-01-14T18:42:22.169Z,3.94
2019-01-14T18:44:50.508Z,3.87
2019-01-14T18:47:19.232Z,3.78
2019-01-14T18:49:47.537Z,3.73
2019-01-14T18:52:15.973Z,3.67
2019-01-14T18:54:44.324Z,3.63
2019-01-14T18:57:12.798Z,3.53
2019-01-14T18:59:41.162Z,3.45
2019-01-14T19:02:09.731Z,3.51
2019-01-14T19:04:38.057Z,3.40
2019-01-14T19:07:06.400Z,3.42
2019-01-14T19:09:34.884Z,3.49
2019-01-14T19:12:03.298Z,3.47
2019-01-14T19:14:31.670Z,3.46
2019-01-14T19:17:00.014Z,3.55
2019-01-14T19:19:28.394Z,3.62
2019-01-14T19:21:56.725Z,3.56
2019-01-14T19:24:25.063Z,3.63
2019-01-14T19:26:54.577Z,3.56
2019-01-14T19:29:23.042Z,3.49
2019-01-14T19:31:51.857Z,3.60
2019-01-14T19:34:20.317Z,3.58
2019-01-14T19:36:48.730Z,3.70
2019-01-14T19:39:17.129Z,3.73
2019-01-14T19:41:45.461Z,3.84
2019-01-14T19:44:13.839Z,3.79
2019-01-14T19:46:43.109Z,3.91
2019-01-14T19:49:12.206Z,3.88
2019-01-14T19:51:40.527Z,3.91
2019-01-14T19:54:08.934Z,3.97
2019-01-14T19:56:37.235Z,4.13
2019-01-14T19:59:05.677Z,4.11
2019-01-14T20:01:34.063Z,4.17
2019-01-14T20:04:02.436Z,4.22
2019-01-14T20:06:30.770Z,4.09
2019-01-14T20:08:59.121Z,3.92
2019-01-14T20:11:27.517Z,3.92
2019-01-14T20:13:56.007Z,3.91
2019-01-14T20:16:24.367Z,3.89
2019-01-14T20:18:52.756Z,3.95
2019-01-14T20:21:21.159Z,3.97
2019-01-14T20:23:52.455Z,4.05
2019-01-14T20:26:19.834Z,4.09
2019-01-14T20:28:48.180Z,4.17
2019-01-14T20:31:16.544Z,4.19
2019-01-14T20:33:44.899Z,4.30
2019-01-14T20:36:13.656Z,4.24
2019-01-14T20:38:41.985Z,4.25
2019-01-14T20:41:16.436Z,4.26
2019-01-14T20:43:41.332Z,4.17
2019-01-14T20:46:09.688Z,4.16
2019-01-14T20:48:38.028Z,4.30
2019-01-14T20:51:06.424Z,4.42
2019-01-14T20:53:34.762Z,4.30
2019-01-14T20:56:03.200Z,4.30
2019-01-14T20:58:31.515Z,4.41
2019-01-14T21:00:59.951Z,4.24
2019-01-14T21:03:28.370Z,4.42
2019-01-14T21:05:56.839Z,4.42
2019-01-14T21:08:25.145Z,4.46
2019-01-14T21:10:54.182Z,4.60
2019-01-14T21:13:22.512Z,4.56
2019-01-14T21:15:50.867Z,4.67
2019-01-14T21:18:19.271Z,4.73
2019-01-14T21:20:47.623Z,4.74
2019-01-14T21:23:15.961Z,4.59
2019-01-14T21:25:44.322Z,4.55
2019-01-14T21:28:12.722Z,4.65
2019-01-14T21:30:41.122Z,4.57
2019-01-14T21:33:09.732Z,4.35
2019-01-14T21:35:38.055Z,4.29
2019-01-14T21:38:06.376Z,4.23
2019-01-14T21:40:34.812Z,4.17
2019-01-14T21:43:03.182Z,4.14
2019-01-14T21:45:31.545Z,4.13
2019-01-14T21:48:00.639Z,4.16
2019-01-14T21:50:29.267Z,4.23
2019-01-14T21:52:57.799Z,4.08
2019-01-14T21:55:26.185Z,4.06
2019-01-14T21:57:54.582Z,4.11
2019-01-14T22:00:23.525Z,3.97
2019-01-14T22:02:51.955Z,4.02
2019-01-14T22:05:20.861Z,3.97
2019-01-14T22:07:49.345Z,4.17
2019-01-14T22:10:21.049Z,4.43
2019-01-14T22:12:49.390Z,5.09
2019-01-14T22:15:17.744Z,5.42
2019-01-14T22:17:46.105Z,5.75
2019-01-14T22:20:15.813Z,5.97
2019-01-14T22:22:44.296Z,6.04
2019-01-14T22:25:13.598Z,5.71
2019-01-14T22:27:42.018Z,5.35
2019-01-14T22:30:14.702Z,4.93
2019-01-14T22:32:43.049Z,5.02
2019-01-14T22:35:12.029Z,4.76
2019-01-14T22:37:40.422Z,4.58
2019-01-14T22:40:12.743Z,4.61
2019-01-14T22:42:41.164Z,4.65
2019-01-14T22:45:10.752Z,4.77
2019-01-14T22:47:39.171Z,4.68
2019-01-14T22:50:10.174Z,4.71
2019-01-14T22:52:38.615Z,4.60
2019-01-14T22:55:08.266Z,4.63
2019-01-14T22:57:36.612Z,4.48
2019-01-14T23:00:13.658Z,4.44
2019-01-14T23:02:42.116Z,4.43
2019-01-14T23:05:11.000Z,4.48
2019-01-14T23:07:39.369Z,4.62
2019-01-14T23:10:07.865Z,4.55
2019-01-14T23:12:36.244Z,4.37
2019-01-14T23:15:06.165Z,4.41
2019-01-14T23:17:34.473Z,4.34
2019-01-14T23:20:03.022Z,4.43
2019-01-14T23:22:31.361Z,4.49
2019-01-14T23:24:59.726Z,4.49
2019-01-14T23:27:28.130Z,4.47
2019-01-14T23:29:56.466Z,4.46
2019-01-14T23:32:25.251Z,4.47
2019-01-14T23:34:53.648Z,4.39
2019-01-14T23:37:22.036Z,4.45
2019-01-14T23:39:50.450Z,4.49
2019-01-14T23:42:19.318Z,4.43
2019-01-14T23:44:47.689Z,4.25
2019-01-14T23:47:16.006Z,4.33
2019-01-14T23:49:44.357Z,4.31
2019-01-14T23:52:12.958Z,4.29
2019-01-14T23:54:41.309Z,4.13
2019-01-14T23:57:11.352Z,4.30
2019-01-14T23:59:39.696Z,4.40
